createdAt,value
2019-04-06T00:00:10.170Z,75.50
2019-04-06T00:02:40.629Z,75.50
2019-04-06T00:05:12.166Z,75.40
2019-04-06T00:07:45.368Z,75.40
2019-04-06T00:10:16.379Z,75.50
2019-04-06T00:12:46.855Z,75.50
2019-04-06T00:15:17.325Z,75.70
2019-04-06T00:17:48.364Z,75.70
2019-04-06T00:20:18.923Z,75.80
2019-04-06T00:22:49.425Z,75.80
2019-04-06T00:25:20.279Z,75.80
2019-04-06T00:27:50.757Z,75.70
2019-04-06T00:30:21.422Z,75.90
2019-04-06T00:33:07.433Z,76.00
2019-04-06T00:35:39.169Z,76.00
2019-04-06T00:38:09.658Z,75.80
2019-04-06T00:40:40.156Z,76.00
2019-04-06T00:43:10.677Z,75.70
2019-04-06T00:45:41.137Z,75.80
2019-04-06T00:48:15.028Z,76.00
2019-04-06T00:50:45.454Z,75.90
2019-04-06T00:53:18.256Z,76.00
2019-04-06T00:55:55.675Z,76.00
2019-04-06T00:58:21.755Z,76.20
2019-04-06T01:00:52.788Z,76.20
2019-04-06T01:03:25.809Z,76.20
2019-04-06T01:05:56.192Z,76.30
2019-04-06T01:08:27.043Z,76.30
2019-04-06T01:10:59.889Z,76.30
2019-04-06T01:13:30.483Z,76.20
2019-04-06T01:16:04.939Z,76.30
2019-04-06T01:18:36.967Z,76.40
2019-04-06T01:21:07.433Z,76.40
2019-04-06T01:23:37.892Z,76.70
2019-04-06T01:26:09.075Z,76.70
2019-04-06T01:28:40.554Z,76.70
2019-04-06T01:31:11.013Z,76.60
2019-04-06T01:33:41.737Z,76.90
2019-04-06T01:36:12.207Z,76.90
2019-04-06T01:38:42.607Z,77.00
2019-04-06T01:41:13.398Z,77.10
2019-04-06T01:43:43.958Z,77.20
2019-04-06T01:46:14.845Z,77.30
2019-04-06T01:48:45.292Z,77.30
2019-04-06T01:51:16.111Z,77.40
2019-04-06T01:53:46.916Z,77.50
2019-04-06T01:56:20.614Z,78.10
2019-04-06T01:58:53.597Z,77.40
2019-04-06T02:01:46.959Z,77.50
2019-04-06T02:04:17.393Z,77.50
2019-04-06T02:06:50.111Z,78.30
2019-04-06T02:09:20.755Z,77.50
2019-04-06T02:11:51.640Z,77.70
2019-04-06T02:14:22.121Z,77.80
2019-04-06T02:16:53.078Z,77.90
2019-04-06T02:19:23.943Z,77.80
2019-04-06T02:21:56.418Z,77.80
2019-04-06T02:24:26.851Z,77.70
2019-04-06T02:26:57.582Z,77.70
2019-04-06T02:29:28.201Z,77.90
2019-04-06T02:32:35.928Z,78.00
2019-04-06T02:35:36.041Z,78.10
2019-04-06T02:38:19.816Z,78.10
2019-04-06T02:41:15.313Z,78.00
2019-04-06T02:43:45.764Z,78.00
2019-04-06T02:46:16.497Z,78.00
2019-04-06T02:48:46.953Z,77.90
2019-04-06T02:51:17.416Z,78.00
2019-04-06T02:53:48.297Z,78.10
2019-04-06T02:56:18.742Z,78.30
2019-04-06T02:58:49.660Z,78.40
2019-04-06T03:01:20.212Z,78.20
2019-04-06T03:03:51.048Z,78.20
2019-04-06T03:06:24.766Z,78.10
2019-04-06T03:08:55.621Z,78.00
2019-04-06T03:11:27.093Z,77.90
2019-04-06T03:14:10.250Z,77.90
2019-04-06T03:16:40.773Z,77.80
2019-04-06T03:19:11.241Z,77.80
2019-04-06T03:21:41.828Z,77.70
2019-04-06T03:24:12.226Z,77.70
2019-04-06T03:26:42.741Z,77.80
2019-04-06T03:29:16.518Z,77.80
2019-04-06T03:31:47.351Z,77.80
2019-04-06T03:34:21.205Z,77.70
2019-04-06T03:36:50.054Z,77.70
2019-04-06T03:39:20.531Z,77.80
2019-04-06T03:41:53.387Z,77.70
2019-04-06T03:44:23.826Z,77.50
2019-04-06T03:46:54.235Z,77.60
2019-04-06T03:49:24.612Z,77.70
2019-04-06T03:51:55.487Z,77.70
2019-04-06T03:54:25.874Z,77.70
2019-04-06T03:56:56.385Z,77.60
2019-04-06T03:59:26.727Z,77.60
2019-04-06T04:01:59.071Z,77.70
2019-04-06T04:04:29.503Z,77.60
2019-04-06T04:07:00.202Z,77.70
2019-04-06T04:09:30.994Z,77.60
2019-04-06T04:12:02.144Z,77.60
2019-04-06T04:14:33.714Z,77.60
2019-04-06T04:17:04.240Z,77.60
2019-04-06T04:19:34.697Z,77.50
2019-04-06T04:22:05.041Z,77.50
2019-04-06T04:24:36.128Z,77.60
2019-04-06T04:27:07.199Z,77.50
2019-04-06T04:29:37.926Z,77.50
2019-04-06T04:32:08.414Z,77.70
2019-04-06T04:34:38.929Z,77.60
2019-04-06T04:37:09.281Z,77.50
2019-04-06T04:39:41.698Z,77.40
2019-04-06T04:42:12.041Z,77.20
2019-04-06T04:44:42.696Z,77.10
2019-04-06T04:47:13.298Z,77.10
2019-04-06T04:49:45.343Z,77.10
2019-04-06T04:52:15.666Z,77.20
2019-04-06T04:54:46.062Z,77.30
2019-04-06T04:57:16.490Z,77.50
2019-04-06T04:59:46.969Z,77.50
2019-04-06T05:02:17.386Z,77.70
2019-04-06T05:04:47.736Z,77.90
2019-04-06T05:07:19.220Z,77.90
2019-04-06T05:09:49.922Z,78.10
2019-04-06T05:12:20.381Z,78.30
2019-04-06T05:15:14.921Z,78.50
2019-04-06T05:17:52.868Z,78.30
2019-04-06T05:20:44.862Z,78.30
2019-04-06T05:23:30.584Z,78.60
2019-04-06T05:26:10.350Z,78.60
2019-04-06T05:28:41.270Z,78.40
2019-04-06T05:31:12.051Z,78.50
2019-04-06T05:33:42.434Z,78.60
2019-04-06T05:36:12.998Z,78.40
2019-04-06T05:38:43.469Z,78.40
2019-04-06T05:41:15.320Z,78.40
2019-04-06T05:43:53.942Z,78.30
2019-04-06T05:46:25.045Z,78.30
2019-04-06T05:48:55.541Z,78.30
2019-04-06T05:51:26.425Z,78.40
2019-04-06T05:53:56.958Z,78.30
2019-04-06T05:56:29.860Z,78.60
2019-04-06T05:59:00.327Z,78.00
2019-04-06T06:01:31.326Z,78.20
2019-04-06T06:04:04.767Z,78.60
2019-04-06T06:06:35.250Z,78.40
2019-04-06T06:09:25.113Z,78.40
2019-04-06T06:11:56.078Z,78.50
2019-04-06T06:14:26.812Z,78.40
2019-04-06T06:16:57.324Z,78.40
2019-04-06T06:19:27.790Z,78.00
2019-04-06T06:21:58.531Z,78.00
2019-04-06T06:24:31.144Z,78.00
2019-04-06T06:27:03.728Z,77.80
2019-04-06T06:29:34.391Z,77.90
2019-04-06T06:32:28.000Z,77.70
2019-04-06T06:35:00.085Z,77.70
2019-04-06T06:37:31.682Z,77.70
2019-04-06T06:40:02.285Z,77.40
2019-04-06T06:42:36.295Z,77.20
2019-04-06T06:45:07.319Z,77.20
2019-04-06T06:47:38.042Z,77.20
2019-04-06T06:50:11.548Z,77.20
2019-04-06T06:52:41.999Z,77.20
2019-04-06T06:55:12.635Z,77.20
2019-04-06T06:57:56.939Z,77.30
2019-04-06T07:00:41.664Z,76.90
2019-04-06T07:03:17.411Z,77.00
2019-04-06T07:06:19.316Z,77.00
2019-04-06T07:09:18.973Z,76.80
2019-04-06T07:12:00.100Z,76.30
2019-04-06T07:14:44.417Z,76.00
2019-04-06T07:17:26.638Z,76.00
2019-04-06T07:20:03.294Z,76.10
2019-04-06T07:22:37.715Z,75.00
2019-04-06T07:25:08.490Z,74.90
2019-04-06T07:27:44.919Z,74.80
2019-04-06T07:30:32.872Z,74.90
2019-04-06T07:33:42.609Z,75.00
2019-04-06T07:36:26.969Z,74.90
2019-04-06T07:39:27.631Z,74.70
2019-04-06T07:42:00.683Z,74.40
2019-04-06T07:45:11.532Z,74.10
2019-04-06T07:47:43.460Z,74.20
2019-04-06T07:50:16.547Z,74.10
2019-04-06T07:52:47.534Z,74.00
2019-04-06T07:55:18.297Z,73.90
2019-04-06T07:57:48.659Z,73.60
2019-04-06T08:00:31.971Z,73.10
2019-04-06T08:03:04.019Z,73.20
2019-04-06T08:05:38.370Z,73.10
2019-04-06T08:08:12.314Z,73.10
2019-04-06T08:10:45.189Z,72.90
2019-04-06T08:13:20.733Z,72.80
2019-04-06T08:15:54.363Z,72.10
2019-04-06T08:18:29.220Z,71.70
2019-04-06T08:21:00.641Z,71.50
2019-04-06T08:23:36.314Z,71.30
2019-04-06T08:26:12.756Z,71.40
2019-04-06T08:28:45.455Z,71.20
2019-04-06T08:31:33.703Z,71.30
2019-04-06T08:34:07.201Z,71.30
2019-04-06T08:36:44.038Z,71.10
2019-04-06T08:39:17.448Z,71.00
2019-04-06T08:41:50.903Z,71.20
2019-04-06T08:44:26.882Z,71.20
2019-04-06T08:47:02.719Z,71.30
2019-04-06T08:49:33.930Z,70.80
2019-04-06T08:52:11.760Z,70.50
2019-04-06T08:54:51.659Z,70.30
2019-04-06T08:57:26.208Z,70.00
2019-04-06T08:59:58.794Z,69.90
2019-04-06T09:02:35.759Z,70.10
2019-04-06T09:05:09.005Z,70.30
2019-04-06T09:07:53.882Z,70.30
2019-04-06T09:10:27.414Z,69.90
2019-04-06T09:13:09.141Z,69.40
2019-04-06T09:15:38.764Z,69.30
2019-04-06T09:18:36.039Z,69.00
2019-04-06T09:21:06.463Z,68.90
2019-04-06T09:23:58.318Z,68.60
2019-04-06T09:26:29.075Z,68.60
2019-04-06T09:28:59.941Z,68.60
2019-04-06T09:31:32.850Z,68.10
2019-04-06T09:34:03.344Z,67.90
2019-04-06T09:36:33.920Z,67.70
2019-04-06T09:39:06.446Z,67.70
2019-04-06T09:41:38.339Z,67.60
2019-04-06T09:44:15.205Z,66.80
2019-04-06T09:47:19.879Z,66.40
2019-04-06T09:50:27.059Z,65.80
2019-04-06T09:53:22.093Z,65.70
2019-04-06T09:56:05.983Z,65.40
2019-04-06T09:58:58.640Z,65.40
2019-04-06T10:01:42.972Z,65.20
2019-04-06T10:04:45.810Z,64.80
2019-04-06T10:07:41.870Z,64.50
2019-04-06T10:10:31.044Z,64.00
2019-04-06T10:13:27.500Z,63.70
2019-04-06T10:16:04.396Z,63.50
2019-04-06T10:19:00.177Z,63.50
2019-04-06T10:21:56.321Z,62.80
2019-04-06T10:24:35.839Z,62.90
2019-04-06T10:27:25.184Z,62.60
2019-04-06T10:30:16.526Z,62.40
2019-04-06T10:33:07.556Z,62.10
2019-04-06T10:36:16.114Z,61.70
2019-04-06T10:39:09.427Z,61.40
2019-04-06T10:41:58.764Z,61.30
2019-04-06T10:44:53.802Z,60.80
2019-04-06T10:47:46.618Z,60.30
2019-04-06T10:50:28.428Z,60.30
2019-04-06T10:53:20.026Z,59.90
2019-04-06T10:56:09.091Z,59.90
2019-04-06T10:59:02.806Z,59.80
2019-04-06T11:01:53.662Z,59.40
2019-04-06T11:04:34.580Z,59.40
2019-04-06T11:07:40.900Z,59.00
2019-04-06T11:10:41.979Z,59.10
2019-04-06T11:13:40.650Z,58.10
2019-04-06T11:16:25.014Z,57.50
2019-04-06T11:19:23.754Z,57.00
2019-04-06T11:22:09.391Z,56.80
2019-04-06T11:25:03.212Z,56.50
2019-04-06T11:27:47.493Z,55.50
2019-04-06T11:30:28.519Z,55.40
2019-04-06T11:33:40.576Z,55.30
2019-04-06T11:36:30.180Z,54.80
2019-04-06T11:39:26.522Z,54.50
2019-04-06T11:42:13.440Z,54.30
2019-04-06T11:45:23.907Z,54.30
2019-04-06T11:48:19.334Z,54.40
2019-04-06T11:51:10.210Z,54.40
2019-04-06T11:54:03.454Z,54.10
2019-04-06T11:56:52.835Z,53.90
2019-04-06T11:59:59.994Z,54.00
2019-04-06T12:03:00.947Z,53.70
2019-04-06T12:05:48.366Z,53.30
2019-04-06T12:08:36.637Z,53.20
2019-04-06T12:11:26.882Z,53.30
2019-04-06T12:14:25.189Z,53.30
2019-04-06T12:17:08.825Z,53.90
2019-04-06T12:19:56.934Z,53.40
2019-04-06T12:22:33.752Z,53.50
2019-04-06T12:25:12.495Z,53.60
2019-04-06T12:28:21.490Z,53.90
2019-04-06T12:31:08.222Z,53.90
2019-04-06T12:33:53.932Z,53.90
2019-04-06T12:36:49.356Z,54.00
2019-04-06T12:39:53.427Z,54.30
2019-04-06T12:42:38.659Z,54.20
2019-04-06T12:45:27.179Z,54.20
2019-04-06T12:48:33.937Z,53.90
2019-04-06T12:51:31.976Z,53.20
2019-04-06T12:54:23.825Z,53.10
2019-04-06T12:57:33.258Z,53.10
2019-04-06T13:00:32.286Z,53.10
2019-04-06T13:03:25.270Z,52.90
2019-04-06T13:06:09.362Z,52.50
2019-04-06T13:08:52.553Z,52.50
2019-04-06T13:11:51.248Z,52.50
2019-04-06T13:14:34.470Z,52.50
2019-04-06T13:17:22.385Z,52.10
2019-04-06T13:20:15.161Z,51.40
2019-04-06T13:23:18.218Z,50.40
2019-04-06T13:26:11.222Z,50.00
2019-04-06T13:29:12.851Z,49.80
2019-04-06T13:32:01.758Z,49.80
2019-04-06T13:34:54.828Z,49.90
2019-04-06T13:37:43.012Z,49.50
2019-04-06T13:40:35.561Z,49.50
2019-04-06T13:43:23.828Z,49.10
2019-04-06T13:46:10.202Z,49.10
2019-04-06T13:49:05.598Z,48.70
2019-04-06T13:51:45.683Z,48.30
2019-04-06T13:54:33.877Z,47.10
2019-04-06T13:57:23.588Z,46.30
2019-04-06T14:00:11.465Z,45.60
2019-04-06T14:03:08.462Z,45.50
2019-04-06T14:05:57.023Z,44.80
2019-04-06T14:08:43.299Z,43.80
2019-04-06T14:11:38.337Z,42.30
2019-04-06T14:14:23.156Z,41.40
2019-04-06T14:17:11.528Z,40.60
2019-04-06T14:20:08.375Z,39.90
2019-04-06T14:22:49.015Z,39.10
2019-04-06T14:25:37.705Z,38.70
2019-04-06T14:28:39.613Z,38.00
2019-04-06T14:31:47.280Z,37.70
2019-04-06T14:34:39.379Z,37.30
2019-04-06T14:37:44.528Z,37.60
2019-04-06T14:40:29.399Z,37.10
2019-04-06T14:43:10.103Z,37.30
2019-04-06T14:46:05.656Z,37.40
2019-04-06T14:49:09.185Z,37.60
2019-04-06T14:52:03.824Z,37.50
2019-04-06T14:55:08.908Z,37.70
2019-04-06T14:58:03.814Z,38.00
2019-04-06T15:01:04.055Z,37.80
2019-04-06T15:04:02.812Z,37.00
2019-04-06T15:06:54.818Z,36.40
2019-04-06T15:09:50.686Z,36.30
2019-04-06T15:12:51.177Z,36.40
2019-04-06T15:15:51.258Z,36.30
2019-04-06T15:18:47.379Z,35.60
2019-04-06T15:21:41.210Z,35.30
2019-04-06T15:24:18.249Z,35.00
2019-04-06T15:27:10.779Z,35.00
2019-04-06T15:29:52.344Z,34.70
2019-04-06T15:32:35.634Z,34.60
2019-04-06T15:35:37.663Z,34.50
2019-04-06T15:38:25.633Z,34.50
2019-04-06T15:41:09.032Z,34.30
2019-04-06T15:44:00.363Z,34.50
2019-04-06T15:47:09.550Z,34.10
2019-04-06T15:49:57.902Z,34.00
2019-04-06T15:52:49.002Z,33.80
2019-04-06T15:55:37.295Z,33.80
2019-04-06T15:58:22.420Z,33.80
2019-04-06T16:01:11.095Z,33.70
2019-04-06T16:03:55.395Z,33.90
2019-04-06T16:06:44.333Z,34.20
2019-04-06T16:09:43.311Z,34.10
2019-04-06T16:12:31.380Z,33.90
2019-04-06T16:15:15.306Z,34.00
2019-04-06T16:18:05.969Z,34.10
2019-04-06T16:20:42.622Z,34.10
2019-04-06T16:23:23.204Z,34.00
2019-04-06T16:26:09.203Z,34.30
2019-04-06T16:28:49.721Z,34.50
2019-04-06T16:31:57.174Z,34.70
2019-04-06T16:34:47.016Z,35.10
2019-04-06T16:37:48.559Z,35.30
2019-04-06T16:40:42.802Z,35.60
2019-04-06T16:44:18.592Z,35.80
2019-04-06T16:47:25.000Z,36.00
2019-04-06T16:50:33.557Z,36.70
2019-04-06T16:53:38.231Z,36.20
2019-04-06T16:56:26.606Z,36.30
2019-04-06T16:59:06.557Z,36.30
2019-04-06T17:01:57.398Z,36.30
2019-04-06T17:04:37.389Z,36.30
2019-04-06T17:07:35.809Z,36.50
2019-04-06T17:10:17.043Z,36.50
2019-04-06T17:13:12.364Z,36.50
2019-04-06T17:16:06.331Z,36.70
2019-04-06T17:18:58.304Z,36.70
2019-04-06T17:21:51.192Z,37.40
2019-04-06T17:24:29.591Z,36.90
2019-04-06T17:27:21.196Z,37.00
2019-04-06T17:30:04.132Z,37.00
2019-04-06T17:32:42.989Z,36.70
2019-04-06T17:35:44.760Z,36.90
2019-04-06T17:38:44.779Z,37.00
2019-04-06T17:41:39.923Z,37.10
2019-04-06T17:44:40.458Z,37.10
2019-04-06T17:47:24.267Z,37.20
2019-04-06T17:50:16.528Z,37.30
2019-04-06T17:53:02.183Z,37.50
2019-04-06T17:56:04.757Z,37.70
2019-04-06T17:59:00.152Z,37.80
2019-04-06T18:01:59.027Z,37.80
2019-04-06T18:05:04.486Z,38.00
2019-04-06T18:08:04.839Z,38.30
2019-04-06T18:11:11.323Z,38.50
2019-04-06T18:13:59.769Z,38.80
2019-04-06T18:16:38.602Z,39.00
2019-04-06T18:19:15.043Z,39.30
2019-04-06T18:21:49.160Z,39.50
2019-04-06T18:24:37.997Z,39.70
2019-04-06T18:27:08.194Z,39.90
2019-04-06T18:30:18.268Z,39.90
2019-04-06T18:33:27.080Z,40.20
2019-04-06T18:36:01.187Z,40.30
2019-04-06T18:38:52.218Z,40.40
2019-04-06T18:41:24.838Z,40.60
2019-04-06T18:44:05.782Z,40.50
2019-04-06T18:46:41.910Z,40.90
2019-04-06T18:49:15.248Z,41.10
2019-04-06T18:51:54.080Z,41.40
2019-04-06T18:54:34.695Z,41.50
2019-04-06T18:57:08.314Z,41.50
2019-04-06T18:59:39.120Z,41.70
2019-04-06T19:02:11.019Z,42.00
2019-04-06T19:04:42.146Z,42.00
2019-04-06T19:07:12.823Z,41.90
2019-04-06T19:09:44.135Z,42.10
2019-04-06T19:12:15.068Z,42.30
2019-04-06T19:14:48.410Z,42.50
2019-04-06T19:17:22.947Z,42.60
2019-04-06T19:20:15.078Z,42.80
2019-04-06T19:22:45.591Z,43.00
2019-04-06T19:25:16.122Z,43.40
2019-04-06T19:27:49.714Z,44.40
2019-04-06T19:30:23.785Z,44.10
2019-04-06T19:32:56.943Z,45.10
2019-04-06T19:35:28.652Z,44.90
2019-04-06T19:38:02.460Z,45.30
2019-04-06T19:40:34.575Z,45.70
2019-04-06T19:43:09.914Z,46.20
2019-04-06T19:45:40.830Z,46.40
2019-04-06T19:48:12.466Z,46.90
2019-04-06T19:50:43.176Z,47.30
2019-04-06T19:53:13.734Z,47.70
2019-04-06T19:55:47.018Z,48.00
2019-04-06T19:58:24.979Z,48.20
2019-04-06T20:01:06.951Z,48.70
2019-04-06T20:03:42.385Z,48.90
2019-04-06T20:06:16.898Z,49.20
2019-04-06T20:08:54.261Z,49.40
2019-04-06T20:11:25.570Z,49.70
2019-04-06T20:14:01.523Z,50.00
2019-04-06T20:16:37.268Z,50.30
2019-04-06T20:19:14.076Z,50.50
2019-04-06T20:21:54.846Z,50.50
2019-04-06T20:24:30.026Z,50.50
2019-04-06T20:29:59.242Z,51.20
2019-04-06T20:32:48.437Z,51.30
2019-04-06T20:35:14.818Z,51.60
2019-04-06T20:37:47.730Z,51.60
2019-04-06T20:40:23.423Z,51.90
2019-04-06T20:43:07.241Z,52.10
2019-04-06T20:45:59.138Z,52.20
2019-04-06T20:48:38.442Z,52.40
2019-04-06T20:51:25.029Z,52.50
2019-04-06T20:54:33.085Z,52.60
2019-04-06T20:57:30.859Z,52.80
2019-04-06T21:00:10.875Z,52.80
2019-04-06T21:02:45.986Z,53.00
2019-04-06T21:05:16.997Z,53.20
2019-04-06T21:07:48.494Z,53.20
2019-04-06T21:11:06.453Z,53.30
2019-04-06T21:13:36.954Z,53.40
2019-04-06T21:16:34.324Z,53.50
2019-04-06T21:19:56.275Z,53.70
2019-04-06T21:22:29.411Z,53.80
2019-04-06T21:25:02.548Z,53.80
2019-04-06T21:27:36.295Z,54.20
2019-04-06T21:35:32.544Z,54.50
2019-04-06T21:42:16.240Z,54.90
2019-04-06T21:44:53.820Z,55.00
2019-04-06T21:47:51.158Z,55.20
2019-04-06T21:51:24.280Z,55.40
2019-04-06T21:53:55.048Z,55.50
2019-04-06T21:56:34.162Z,55.70
2019-04-06T21:59:15.297Z,55.90
2019-04-06T22:01:56.187Z,56.10
2019-04-06T22:04:27.775Z,56.30
2019-04-06T22:06:59.185Z,56.40
2019-04-06T22:09:30.190Z,56.50
2019-04-06T22:12:05.339Z,56.70
2019-04-06T22:14:33.736Z,56.70
2019-04-06T22:17:07.464Z,56.80
2019-04-06T22:19:38.244Z,56.80
2019-04-06T22:22:10.088Z,57.00
2019-04-06T22:24:43.235Z,57.10
2019-04-06T22:27:14.214Z,57.20
2019-04-06T22:29:46.318Z,57.30
2019-04-06T22:32:17.901Z,57.40
2019-04-06T22:34:48.725Z,57.50
2019-04-06T22:37:28.188Z,57.60
2019-04-06T22:40:00.337Z,57.70
2019-04-06T22:42:31.689Z,57.70
2019-04-06T22:45:14.994Z,57.80
2019-04-06T22:47:56.501Z,57.90
2019-04-06T22:50:27.336Z,58.60
2019-04-06T22:53:00.483Z,58.20
2019-04-06T22:55:35.372Z,58.30
2019-04-06T22:58:06.428Z,58.30
2019-04-06T23:01:11.665Z,58.30
2019-04-06T23:03:48.782Z,58.30
2019-04-06T23:09:59.941Z,58.40
2019-04-06T23:12:32.564Z,58.30
2019-04-06T23:15:19.027Z,58.40
2019-04-06T23:17:52.188Z,58.40
2019-04-06T23:20:26.789Z,58.60
2019-04-06T23:22:59.709Z,58.70
2019-04-06T23:25:33.494Z,58.80
2019-04-06T23:28:04.843Z,58.90
2019-04-06T23:30:37.485Z,58.90
2019-04-06T23:33:10.292Z,59.00
2019-04-06T23:35:41.318Z,59.10
2019-04-06T23:38:13.997Z,59.10
2019-04-06T23:40:44.357Z,59.20
2019-04-06T23:43:14.956Z,59.20
2019-04-06T23:45:51.495Z,59.40
2019-04-06T23:48:22.438Z,59.50
2019-04-06T23:50:56.639Z,60.20
2019-04-06T23:53:30.548Z,59.80
2019-04-06T23:56:10.973Z,59.90
2019-04-06T23:58:43.149Z,60.00
